< < Back
Terminal Aerodrome Forecast


Current Version              Previous Versions:   1  2  3  4  5  6  7  8  9  

Terminal Aerodrome Forecast

335
FTUS44 KOHX 250900 AAC
TAFCSV
TAF AMD
KCSV 250955Z 2510/2606 17005KT P6SM -SHRA BKN025 OVC100
     FM251100 18007KT 5SM -SHRA VCTS BKN012CB OVC025
     FM251600 18010KT P6SM VCSH SCT015 BKN050
     FM252000 20012G22KT P6SM SCT020
     FM260400 24010KT P6SM SCT015 BKN040=

Latest METAR

974
SAUS70 KWBC 251200 RRH
MTRCSV
METAR KCSV 251153Z AUTO 15007G15KT 9SM OVC007 13/11 A2974 RMK AO2 CIG
004V010 SLP061 60006 70006 T01280111 10133 20111 58030


USA.gov is the U.S. government's official web portal to all federal, state and local government web resources and services.